Galaxy Leader — C6S02 — position and weather

sailwx.info

Track history (hours):
 
Tides and Currents Weather Stations Pressure Air Temp Water Temp Dewpoint Dewpoint Depression Visibility Wind Speed Wind Dir Waves Ship Positions

Galaxy Leader

Last reported at 2018-Jun-16 16:01 UTC. Time now 2018-Jun-24 14:22 UTC.
Position S 24°14' W 045°60'.

Length 189 m; draft 8.4 m.

Type: Cargo ship. MMSI: 311408000.

Date/timePositionNaut miles runAvg speedWind from/ knotsBaromVisibWave heightAir tempDewpointWater temp
2018-Jun-16 16:01S 24°14' W 045°60'118.6
2018-Jun-16 15:58S 24°14' W 046°01'818.7
2018-Jun-16 15:30S 24°15' W 046°10'816.8
2018-Jun-16 15:00S 24°12' W 046°19'815.2
2018-Jun-16 14:30S 24°05' W 046°22'612.3
2018-Jun-16 14:00S 23°60' W 046°20'3 0.5
2018-Jun-16 08:14S 23°58' W 046°18'0 0.0
2018-Jun-16 06:38S 23°58' W 046°18'0 0.0
2018-Jun-16 06:20S 23°58' W 046°18'0 0.0
2018-Jun-16 05:56S 23°58' W 046°18'0 0.0
2018-Jun-16 05:20S 23°58' W 046°18'0 0.0
2018-Jun-16 04:56S 23°58' W 046°18'0 0.0
2018-Jun-16 04:20S 23°58' W 046°18'0 0.0
2018-Jun-16 03:56S 23°58' W 046°18'0 0.0
2018-Jun-16 03:29S 23°58' W 046°18'0 0.0
2018-Jun-16 02:56S 23°58' W 046°18'0 0.0
2018-Jun-16 02:26S 23°58' W 046°18'0 0.0
2018-Jun-16 01:44S 23°58' W 046°18'0 0.0
2018-Jun-16 01:23S 23°58' W 046°18'0 0.0
2018-Jun-15 23:05S 23°58' W 046°18'0 0.0
2018-Jun-15 22:50S 23°58' W 046°18'0 0.0
2018-Jun-15 17:33S 23°58' W 046°18'0 0.2
2018-Jun-15 17:30S 23°58' W 046°18'2 3.5
2018-Jun-15 17:00S 23°59' W 046°18'4 7.8
2018-Jun-15 16:29S 24°02' W 046°21'5 9.9
2018-Jun-15 16:00S 24°06' W 046°23'3 5.1
2018-Jun-15 15:30S 24°09' W 046°23'1 1.0
2018-Jun-15 15:01S 24°09' W 046°23'1 1.0
2018-Jun-15 14:31S 24°10' W 046°23'1 1.1
2018-Jun-15 14:00S 24°10' W 046°23'1 1.1
2018-Jun-15 13:30S 24°11' W 046°23'1 1.2
2018-Jun-15 13:00S 24°12' W 046°23'1 1.0
2018-Jun-15 12:30S 24°12' W 046°23'0 0.9
2018-Jun-15 12:00S 24°12' W 046°24'0 0.9
2018-Jun-15 11:30S 24°13' W 046°24'1 1.0
2018-Jun-15 11:00S 24°13' W 046°24'1 1.1
2018-Jun-15 10:30S 24°14' W 046°24'1 1.1
2018-Jun-15 10:01S 24°14' W 046°24'1 1.0
2018-Jun-15 09:31S 24°15' W 046°24'1 1.1
2018-Jun-15 09:00S 24°15' W 046°24'1 1.2
2018-Jun-15 08:30S 24°16' W 046°25'1 1.2
2018-Jun-15 08:00S 24°17' W 046°25'1 1.2
2018-Jun-15 07:29S 24°17' W 046°25'1 1.4
2018-Jun-15 07:00S 24°18' W 046°25'1 2.1
2018-Jun-15 06:30S 24°17' W 046°26'3 6.2
2018-Jun-15 06:00S 24°14' W 046°27'1 1.1
2018-Jun-15 05:31S 24°15' W 046°27'1 1.1
2018-Jun-15 05:00S 24°15' W 046°26'1 1.4
2018-Jun-15 04:30S 24°16' W 046°26'1 1.6
2018-Jun-15 04:00S 24°16' W 046°26'1 1.4
2018-Jun-15 03:30S 24°17' W 046°25'1 1.5
2018-Jun-15 03:00S 24°18' W 046°25'1 1.2
2018-Jun-15 02:30S 24°18' W 046°25'3 5.9
2018-Jun-15 02:00S 24°21' W 046°26'816.1
2018-Jun-15 01:29S 24°28' W 046°31'817.4
2018-Jun-15 01:00S 24°34' W 046°37'917.3
2018-Jun-15 00:30S 24°40' W 046°44'  
Track history (hours):
 
Tides and Currents Weather Stations Pressure Air Temp Water Temp Dewpoint Dewpoint Depression Visibility Wind Speed Wind Dir Waves Ship Positions

Galaxy Leader

Last reported at 2018-Jun-16 16:01 UTC. Time now 2018-Jun-24 14:22 UTC.
Position S 24°14' W 045°60'.

Length 189 m; draft 8.4 m.

Type: Cargo ship. MMSI: 311408000.

Date/timePositionNaut miles runAvg speedWind from/ knotsBaromVisibWave heightAir tempDewpointWater temp
2018-Jun-16 16:01S 24°14' W 045°60'118.6
2018-Jun-16 15:58S 24°14' W 046°01'818.7
2018-Jun-16 15:30S 24°15' W 046°10'816.8
2018-Jun-16 15:00S 24°12' W 046°19'815.2
2018-Jun-16 14:30S 24°05' W 046°22'612.3
2018-Jun-16 14:00S 23°60' W 046°20'3 0.5
2018-Jun-16 08:14S 23°58' W 046°18'0 0.0
2018-Jun-16 06:38S 23°58' W 046°18'0 0.0
2018-Jun-16 06:20S 23°58' W 046°18'0 0.0
2018-Jun-16 05:56S 23°58' W 046°18'0 0.0
2018-Jun-16 05:20S 23°58' W 046°18'0 0.0
2018-Jun-16 04:56S 23°58' W 046°18'0 0.0
2018-Jun-16 04:20S 23°58' W 046°18'0 0.0
2018-Jun-16 03:56S 23°58' W 046°18'0 0.0
2018-Jun-16 03:29S 23°58' W 046°18'0 0.0
2018-Jun-16 02:56S 23°58' W 046°18'0 0.0
2018-Jun-16 02:26S 23°58' W 046°18'0 0.0
2018-Jun-16 01:44S 23°58' W 046°18'0 0.0
2018-Jun-16 01:23S 23°58' W 046°18'0 0.0
2018-Jun-15 23:05S 23°58' W 046°18'0 0.0
2018-Jun-15 22:50S 23°58' W 046°18'0 0.0
2018-Jun-15 17:33S 23°58' W 046°18'0 0.2
2018-Jun-15 17:30S 23°58' W 046°18'2 3.5
2018-Jun-15 17:00S 23°59' W 046°18'4 7.8
2018-Jun-15 16:29S 24°02' W 046°21'5 9.9
2018-Jun-15 16:00S 24°06' W 046°23'3 5.1
2018-Jun-15 15:30S 24°09' W 046°23'1 1.0
2018-Jun-15 15:01S 24°09' W 046°23'1 1.0
2018-Jun-15 14:31S 24°10' W 046°23'1 1.1
2018-Jun-15 14:00S 24°10' W 046°23'1 1.1
2018-Jun-15 13:30S 24°11' W 046°23'1 1.2
2018-Jun-15 13:00S 24°12' W 046°23'1 1.0
2018-Jun-15 12:30S 24°12' W 046°23'0 0.9
2018-Jun-15 12:00S 24°12' W 046°24'0 0.9
2018-Jun-15 11:30S 24°13' W 046°24'1 1.0
2018-Jun-15 11:00S 24°13' W 046°24'1 1.1
2018-Jun-15 10:30S 24°14' W 046°24'1 1.1
2018-Jun-15 10:01S 24°14' W 046°24'1 1.0
2018-Jun-15 09:31S 24°15' W 046°24'1 1.1
2018-Jun-15 09:00S 24°15' W 046°24'1 1.2
2018-Jun-15 08:30S 24°16' W 046°25'1 1.2
2018-Jun-15 08:00S 24°17' W 046°25'1 1.2
2018-Jun-15 07:29S 24°17' W 046°25'1 1.4
2018-Jun-15 07:00S 24°18' W 046°25'1 2.1
2018-Jun-15 06:30S 24°17' W 046°26'3 6.2
2018-Jun-15 06:00S 24°14' W 046°27'1 1.1
2018-Jun-15 05:31S 24°15' W 046°27'1 1.1
2018-Jun-15 05:00S 24°15' W 046°26'1 1.4
2018-Jun-15 04:30S 24°16' W 046°26'1 1.6
2018-Jun-15 04:00S 24°16' W 046°26'1 1.4
2018-Jun-15 03:30S 24°17' W 046°25'1 1.5
2018-Jun-15 03:00S 24°18' W 046°25'1 1.2
2018-Jun-15 02:30S 24°18' W 046°25'3 5.9
2018-Jun-15 02:00S 24°21' W 046°26'816.1
2018-Jun-15 01:29S 24°28' W 046°31'817.4
2018-Jun-15 01:00S 24°34' W 046°37'917.3
2018-Jun-15 00:30S 24°40' W 046°44'  

Dump ship's entire track history